Time;durP1;ratioP1;P1;durP2;ratioP2;P2;SDS_P1;SDS_P2;PMS_P1;PMS_P2;Temp;Humidity;BMP_temperature;BMP_pressure;BME280_temperature;BME280_humidity;BME280_pressure;Samples;Min_cycle;Max_cycle;Signal;HPM_P1;HPM_P2
2024/01/22 00:01:09;;;;;;;4.67;2.20;;;5.00;99.90;;;;;;5095858;28;20020;-79
2024/01/22 00:03:34;;;;;;;6.40;1.90;;;4.90;99.90;;;;;;5095537;28;20030;-78
2024/01/22 00:06:00;;;;;;;4.10;2.17;;;4.90;99.90;;;;;;5113532;28;20047;-78
2024/01/22 00:08:25;;;;;;;5.43;1.93;;;4.80;99.90;;;;;;5095890;28;20399;-77
2024/01/22 00:10:51;;;;;;;4.70;1.93;;;4.80;99.90;;;;;;5114148;28;20030;-78
2024/01/22 00:13:16;;;;;;;6.27;2.30;;;4.70;99.90;;;;;;5095114;28;20055;-78
2024/01/22 00:15:42;;;;;;;7.50;2.23;;;4.70;99.90;;;;;;5113461;28;20023;-78
2024/01/22 00:18:08;;;;;;;6.83;2.27;;;4.70;99.90;;;;;;5095211;28;20069;-78
2024/01/22 00:20:33;;;;;;;6.73;1.93;;;4.70;99.90;;;;;;5095882;28;20027;-78
2024/01/22 00:22:59;;;;;;;6.03;2.53;;;4.70;99.90;;;;;;5095531;28;20059;-79
2024/01/22 00:25:24;;;;;;;4.63;1.93;;;4.70;99.90;;;;;;5085412;28;20456;-78
2024/01/22 00:27:50;;;;;;;5.73;2.00;;;4.60;99.90;;;;;;5093315;28;20028;-78
2024/01/22 00:30:15;;;;;;;4.23;2.10;;;4.60;99.90;;;;;;5093173;28;20024;-78
2024/01/22 00:32:41;;;;;;;8.77;2.77;;;4.50;99.90;;;;;;5103619;28;20012;-78
2024/01/22 00:35:07;;;;;;;7.83;2.30;;;4.40;99.90;;;;;;5112940;28;20020;-78
2024/01/22 00:37:32;;;;;;;4.57;2.20;;;4.30;99.90;;;;;;5113214;28;20464;-79
2024/01/22 00:39:58;;;;;;;6.73;2.43;;;4.10;99.90;;;;;;5094701;28;20023;-82
2024/01/22 00:42:24;;;;;;;4.57;2.17;;;4.00;99.90;;;;;;5114014;28;20376;-78
2024/01/22 00:44:49;;;;;;;4.27;2.10;;;3.90;99.90;;;;;;5113235;28;20043;-77
2024/01/22 00:47:15;;;;;;;4.80;2.30;;;3.80;99.90;;;;;;5112558;28;20476;-79
2024/01/22 00:49:42;;;;;;;5.30;2.50;;;3.70;99.90;;;;;;5095221;28;20051;-78
2024/01/22 00:52:07;;;;;;;4.03;2.10;;;3.60;99.90;;;;;;5094763;28;20076;-79
2024/01/22 00:54:33;;;;;;;5.83;2.37;;;3.50;99.90;;;;;;5091910;28;20024;-79
2024/01/22 00:56:58;;;;;;;6.23;2.07;;;3.50;99.90;;;;;;5092757;28;20038;-83
2024/01/22 00:59:24;;;;;;;5.20;2.13;;;3.50;99.90;;;;;;5075317;28;20020;-78
2024/01/22 01:01:50;;;;;;;3.50;2.03;;;3.40;99.90;;;;;;5094866;28;20082;-78
2024/01/22 01:04:15;;;;;;;6.43;2.20;;;3.30;99.90;;;;;;5094968;28;20019;-78
2024/01/22 01:06:41;;;;;;;7.90;2.67;;;3.30;99.90;;;;;;5095321;28;20023;-80
2024/01/22 01:09:07;;;;;;;5.70;2.10;;;3.30;99.90;;;;;;5094976;28;20016;-79
2024/01/22 01:11:32;;;;;;;5.43;2.10;;;3.20;99.90;;;;;;5095409;28;20077;-79
2024/01/22 01:13:58;;;;;;;5.57;2.70;;;3.10;99.90;;;;;;5096974;28;20024;-82
2024/01/22 01:16:23;;;;;;;5.73;2.33;;;3.10;99.90;;;;;;5099404;28;20453;-79
2024/01/22 01:18:49;;;;;;;5.33;2.80;;;2.90;99.90;;;;;;5117842;28;20104;-79
2024/01/22 01:21:16;;;;;;;7.17;2.67;;;2.90;99.90;;;;;;5099472;28;20520;-80
2024/01/22 01:23:42;;;;;;;4.27;2.50;;;2.90;99.90;;;;;;5100137;28;20024;-80
2024/01/22 01:26:08;;;;;;;5.00;2.80;;;2.80;99.90;;;;;;5088699;28;20194;-81
2024/01/22 01:28:33;;;;;;;5.73;2.97;;;2.80;99.90;;;;;;5100040;28;20030;-79
2024/01/22 01:30:59;;;;;;;4.10;2.83;;;2.80;99.90;;;;;;5117495;28;20076;-85
2024/01/22 01:33:24;;;;;;;5.67;3.00;;;2.80;99.90;;;;;;5099704;28;20071;-79
2024/01/22 01:35:50;;;;;;;6.77;3.00;;;2.70;99.90;;;;;;5099808;28;20098;-80
2024/01/22 01:38:15;;;;;;;6.10;3.00;;;2.70;99.90;;;;;;5099403;28;20028;-80
2024/01/22 01:40:42;;;;;;;3.67;2.47;;;2.70;99.90;;;;;;5117718;28;20367;-80
2024/01/22 01:43:07;;;;;;;5.70;2.90;;;2.60;99.90;;;;;;5113126;28;20384;-80
2024/01/22 01:45:33;;;;;;;11.67;5.73;;;2.60;99.90;;;;;;5116482;28;20107;-79
2024/01/22 01:47:59;;;;;;;5.97;3.00;;;2.60;99.90;;;;;;5099584;28;20032;-83
2024/01/22 01:50:25;;;;;;;5.50;2.80;;;2.60;99.90;;;;;;5099969;28;20019;-80
2024/01/22 01:52:52;;;;;;;6.23;3.10;;;2.60;99.90;;;;;;5099758;28;20019;-79
2024/01/22 01:55:20;;;;;;;6.57;3.20;;;2.60;99.90;;;;;;5107186;28;20039;-79
2024/01/22 01:57:48;;;;;;;7.60;3.40;;;2.60;99.90;;;;;;5080905;28;20028;-79
2024/01/22 02:00:15;;;;;;;6.07;3.10;;;2.60;99.90;;;;;;5116179;28;20031;-80
2024/01/22 02:02:41;;;;;;;7.83;3.20;;;2.60;99.90;;;;;;5099066;28;20020;-81
2024/01/22 02:05:07;;;;;;;7.37;3.40;;;2.60;99.90;;;;;;5098833;28;20056;-79
2024/01/22 02:07:33;;;;;;;5.00;2.80;;;2.60;99.90;;;;;;5104989;28;20020;-80
2024/01/22 02:09:59;;;;;;;6.80;3.13;;;2.70;99.90;;;;;;5099198;28;20029;-82
2024/01/22 02:12:25;;;;;;;5.67;2.77;;;2.70;99.90;;;;;;5116672;28;20469;-79
2024/01/22 02:14:50;;;;;;;6.30;2.93;;;2.80;99.90;;;;;;5117132;28;20027;-80
2024/01/22 02:17:16;;;;;;;7.27;2.90;;;2.90;99.90;;;;;;5116858;28;20099;-80
2024/01/22 02:19:42;;;;;;;9.00;3.30;;;3.00;99.90;;;;;;5099302;28;20064;-79
2024/01/22 02:22:08;;;;;;;6.67;3.03;;;3.00;99.90;;;;;;5112402;28;20102;-78
2024/01/22 02:24:34;;;;;;;5.50;3.33;;;3.00;99.90;;;;;;5100027;28;20035;-79
2024/01/22 02:27:00;;;;;;;12.83;3.73;;;3.10;99.90;;;;;;5099355;28;20020;-82
2024/01/22 02:29:25;;;;;;;8.27;3.10;;;3.10;99.90;;;;;;5116442;28;20438;-78
2024/01/22 02:31:52;;;;;;;6.77;2.97;;;3.00;99.90;;;;;;5115308;28;20106;-79
2024/01/22 02:34:18;;;;;;;8.07;2.97;;;3.00;99.90;;;;;;5115124;28;20594;-80
2024/01/22 02:36:45;;;;;;;9.83;3.03;;;3.00;99.90;;;;;;5115571;28;20441;-81
2024/01/22 02:39:14;;;;;;;6.47;3.20;;;3.00;99.90;;;;;;5115234;28;20023;-80
2024/01/22 02:41:40;;;;;;;8.30;2.90;;;3.00;99.90;;;;;;5096985;28;20039;-79
2024/01/22 02:44:06;;;;;;;9.53;3.07;;;3.00;99.90;;;;;;5095149;28;20114;-80
2024/01/22 02:46:32;;;;;;;7.77;3.30;;;3.00;99.90;;;;;;5096127;28;20103;-78
2024/01/22 02:48:58;;;;;;;6.47;2.90;;;3.00;99.90;;;;;;5094862;28;20049;-82
2024/01/22 02:51:24;;;;;;;5.13;2.67;;;3.00;99.90;;;;;;5094684;28;20111;-80
2024/01/22 02:53:52;;;;;;;7.23;2.67;;;3.00;99.90;;;;;;5095799;28;20139;-80
2024/01/22 02:56:18;;;;;;;5.40;1.80;;;3.00;99.90;;;;;;5093475;28;20524;-80
2024/01/22 02:58:44;;;;;;;6.93;2.20;;;3.10;99.90;;;;;;5095481;28;20073;-82
2024/01/22 03:01:10;;;;;;;2.53;1.57;;;3.20;99.90;;;;;;5094958;28;20051;-80
2024/01/22 03:03:35;;;;;;;6.77;2.10;;;3.30;99.90;;;;;;5094346;28;20457;-80
2024/01/22 03:06:01;;;;;;;4.97;1.47;;;3.30;99.90;;;;;;5095570;28;20016;-81
2024/01/22 03:08:27;;;;;;;4.60;1.40;;;3.40;99.90;;;;;;5095553;28;20099;-79
2024/01/22 03:10:52;;;;;;;5.47;1.87;;;3.50;99.90;;;;;;5094175;28;20514;-79
2024/01/22 03:13:18;;;;;;;5.73;1.60;;;3.60;99.90;;;;;;5094973;28;20082;-80
2024/01/22 03:15:44;;;;;;;3.60;1.30;;;3.60;99.90;;;;;;5095312;28;20050;-79
2024/01/22 03:18:09;;;;;;;4.10;1.50;;;3.60;99.90;;;;;;5094185;28;20356;-80
2024/01/22 03:20:37;;;;;;;4.70;1.43;;;3.60;99.90;;;;;;5094542;28;20073;-79
2024/01/22 03:23:03;;;;;;;2.50;1.33;;;3.60;99.90;;;;;;5093835;28;20028;-80
2024/01/22 03:25:29;;;;;;;1.93;1.33;;;3.70;99.90;;;;;;5084325;28;20016;-81
2024/01/22 03:27:55;;;;;;;2.47;1.20;;;3.70;99.90;;;;;;5077752;28;20455;-80
2024/01/22 03:30:20;;;;;;;4.70;1.30;;;3.80;99.90;;;;;;5093779;28;20039;-80
2024/01/22 03:32:46;;;;;;;3.17;1.53;;;3.90;99.90;;;;;;5095121;28;20053;-81
2024/01/22 03:35:11;;;;;;;2.23;1.10;;;4.00;99.90;;;;;;5093634;28;20020;-78
2024/01/22 03:37:37;;;;;;;1.90;1.07;;;4.00;99.90;;;;;;5093533;28;20102;-80
2024/01/22 03:40:03;;;;;;;3.60;1.43;;;4.20;99.90;;;;;;5094667;28;20020;-83
2024/01/22 03:42:28;;;;;;;2.47;1.10;;;4.20;99.90;;;;;;5096551;28;20079;-80
2024/01/22 03:44:54;;;;;;;2.10;1.00;;;4.40;99.90;;;;;;5092817;28;20108;-79
2024/01/22 03:47:20;;;;;;;1.63;1.00;;;4.40;99.90;;;;;;5092356;28;20652;-80
2024/01/22 03:49:46;;;;;;;1.73;1.07;;;4.50;99.90;;;;;;5094346;28;20024;-78
2024/01/22 03:52:11;;;;;;;1.87;0.87;;;4.50;99.90;;;;;;5093025;28;20020;-79
2024/01/22 03:54:37;;;;;;;2.77;0.70;;;4.60;99.90;;;;;;5093453;28;20024;-80
2024/01/22 03:57:06;;;;;;;1.50;0.80;;;4.70;99.90;;;;;;5094347;28;20055;-83
2024/01/22 03:59:36;;;;;;;2.03;0.80;;;4.70;99.90;;;;;;5093565;28;20384;-78
2024/01/22 04:02:02;;;;;;;2.10;0.70;;;4.80;99.90;;;;;;5093447;28;20106;-83
2024/01/22 04:04:27;;;;;;;2.80;0.93;;;4.80;99.90;;;;;;5093405;28;20059;-79
2024/01/22 04:06:53;;;;;;;2.30;1.40;;;4.90;99.90;;;;;;5094556;28;20058;-78
2024/01/22 04:09:18;;;;;;;2.57;0.80;;;5.00;99.90;;;;;;5093193;28;20085;-78
2024/01/22 04:11:44;;;;;;;1.93;0.90;;;5.10;99.90;;;;;;5093360;28;20024;-78
2024/01/22 04:14:10;;;;;;;2.87;0.80;;;5.10;99.90;;;;;;5093628;28;20061;-78
2024/01/22 04:16:35;;;;;;;1.63;0.80;;;5.10;99.90;;;;;;5092932;28;20020;-78
2024/01/22 04:19:01;;;;;;;1.10;0.90;;;5.10;99.90;;;;;;5093082;28;20012;-83
2024/01/22 04:21:28;;;;;;;1.37;0.63;;;5.20;99.90;;;;;;5092699;28;20069;-79
2024/01/22 04:23:53;;;;;;;2.80;1.00;;;5.20;99.90;;;;;;5094175;28;20032;-78
2024/01/22 04:26:19;;;;;;;1.90;1.03;;;5.30;99.90;;;;;;5093588;28;20516;-78
2024/01/22 04:28:44;;;;;;;2.63;0.70;;;5.40;99.90;;;;;;5093166;28;20111;-78
2024/01/22 04:31:10;;;;;;;2.73;0.93;;;5.50;99.90;;;;;;5092104;28;20020;-78
2024/01/22 04:33:36;;;;;;;0.90;0.77;;;5.50;99.90;;;;;;5092561;28;20043;-78
2024/01/22 04:36:01;;;;;;;1.77;0.70;;;5.60;99.90;;;;;;5092565;28;20448;-84
2024/01/22 04:38:28;;;;;;;1.43;0.70;;;5.70;99.90;;;;;;5093482;28;20368;-79
2024/01/22 04:40:54;;;;;;;2.23;0.60;;;5.70;99.90;;;;;;5093868;28;20487;-78
2024/01/22 04:43:23;;;;;;;1.10;0.63;;;5.80;99.90;;;;;;5091925;28;20079;-78
2024/01/22 04:45:49;;;;;;;2.87;0.70;;;5.90;99.90;;;;;;5093481;28;20491;-78
2024/01/22 04:48:14;;;;;;;1.47;0.77;;;5.90;99.90;;;;;;5091462;28;20027;-78
2024/01/22 04:50:40;;;;;;;0.87;0.40;;;5.90;99.90;;;;;;5092603;28;20028;-78
2024/01/22 04:53:06;;;;;;;1.23;0.80;;;6.00;99.90;;;;;;5092203;28;20032;-82
2024/01/22 04:55:32;;;;;;;2.20;0.60;;;6.00;99.90;;;;;;5092788;28;20476;-78
2024/01/22 04:57:58;;;;;;;2.13;0.87;;;6.10;99.90;;;;;;5092029;28;20020;-78
2024/01/22 05:00:23;;;;;;;1.53;0.53;;;6.20;99.90;;;;;;5091938;28;20038;-78
2024/01/22 05:02:49;;;;;;;1.00;0.70;;;6.20;99.90;;;;;;5092278;28;20031;-78
2024/01/22 05:05:15;;;;;;;1.20;0.70;;;6.30;99.90;;;;;;5092830;28;20445;-79
2024/01/22 05:07:41;;;;;;;2.23;0.50;;;6.30;99.90;;;;;;5093694;28;20020;-79
2024/01/22 05:10:10;;;;;;;1.80;0.73;;;6.30;99.90;;;;;;5093344;28;20026;-81
2024/01/22 05:12:42;;;;;;;1.00;0.70;;;6.30;99.90;;;;;;5092379;28;20020;-79
2024/01/22 05:15:09;;;;;;;0.98;0.65;;;6.30;99.90;;;;;;5093317;28;20409;-80
2024/01/22 05:17:34;;;;;;;1.47;0.67;;;6.30;99.90;;;;;;5092561;28;20020;-79
2024/01/22 05:20:00;;;;;;;2.23;0.90;;;6.30;99.90;;;;;;5092341;28;20107;-79
2024/01/22 05:22:26;;;;;;;3.37;0.80;;;6.30;99.90;;;;;;5091694;28;20073;-79
2024/01/22 05:24:53;;;;;;;1.10;0.63;;;6.30;99.90;;;;;;5092139;28;20353;-77
2024/01/22 05:27:18;;;;;;;1.43;0.80;;;6.20;99.90;;;;;;5091534;28;20023;-77
2024/01/22 05:29:44;;;;;;;1.90;0.70;;;6.30;99.90;;;;;;5093085;28;20028;-78
2024/01/22 05:32:10;;;;;;;1.23;0.67;;;6.30;99.90;;;;;;5092552;28;20023;-78
2024/01/22 05:34:36;;;;;;;2.33;0.80;;;6.40;99.90;;;;;;5091963;28;20028;-77
2024/01/22 05:37:01;;;;;;;1.10;0.60;;;6.40;99.90;;;;;;5093095;28;20020;-77
2024/01/22 05:39:27;;;;;;;2.60;0.80;;;6.40;99.90;;;;;;5091548;28;20020;-76
2024/01/22 05:41:54;;;;;;;1.93;0.67;;;6.40;99.90;;;;;;5091780;28;20044;-77
2024/01/22 05:44:20;;;;;;;3.13;0.70;;;6.40;99.90;;;;;;5091601;28;20365;-78
2024/01/22 05:46:46;;;;;;;1.23;0.70;;;6.50;99.90;;;;;;5092182;28;20025;-77
2024/01/22 05:49:11;;;;;;;1.90;0.83;;;6.50;99.90;;;;;;5091348;28;20078;-78
2024/01/22 05:51:37;;;;;;;2.40;1.00;;;6.50;99.90;;;;;;5091739;28;20027;-78
2024/01/22 05:54:03;;;;;;;2.10;0.67;;;6.50;99.90;;;;;;5091616;28;20031;-77
2024/01/22 05:56:28;;;;;;;1.00;0.53;;;6.50;99.90;;;;;;5091421;28;20115;-77
2024/01/22 05:58:56;;;;;;;1.10;0.50;;;6.60;99.90;;;;;;5091808;28;20496;-77
2024/01/22 06:01:25;;;;;;;2.83;0.80;;;6.60;99.90;;;;;;5095129;28;20520;-77
2024/01/22 06:03:51;;;;;;;2.10;0.70;;;6.60;99.90;;;;;;5095855;28;20031;-77
2024/01/22 06:06:18;;;;;;;2.20;0.70;;;6.70;99.90;;;;;;5095444;28;20510;-77
2024/01/22 06:08:45;;;;;;;2.07;0.63;;;6.60;99.90;;;;;;5096891;28;20028;-77
2024/01/22 06:11:12;;;;;;;0.83;0.60;;;6.60;99.90;;;;;;5095012;28;20457;-78
2024/01/22 06:13:41;;;;;;;1.23;0.93;;;6.60;99.90;;;;;;5095295;28;20387;-77
2024/01/22 06:16:14;;;;;;;1.10;0.63;;;6.70;99.90;;;;;;5096526;28;20444;-85
2024/01/22 06:18:41;;;;;;;2.17;0.87;;;6.70;99.90;;;;;;5095504;28;20042;-77
2024/01/22 06:21:07;;;;;;;3.27;1.20;;;6.70;99.90;;;;;;5096259;28;20020;-77
2024/01/22 06:23:33;;;;;;;3.13;1.30;;;6.70;99.90;;;;;;5095131;28;20461;-77
2024/01/22 06:26:00;;;;;;;4.77;1.80;;;6.70;99.90;;;;;;5095996;28;20035;-77
2024/01/22 06:28:28;;;;;;;5.60;1.90;;;6.80;99.90;;;;;;5095737;28;20031;-77
2024/01/22 06:30:54;;;;;;;2.87;1.47;;;6.90;99.90;;;;;;5096354;28;20027;-77
2024/01/22 06:33:21;;;;;;;7.20;2.33;;;7.00;99.90;;;;;;5094126;28;20047;-77
2024/01/22 06:35:47;;;;;;;3.80;1.97;;;7.00;99.90;;;;;;5094763;28;20016;-78
2024/01/22 06:38:13;;;;;;;4.30;1.60;;;7.00;99.90;;;;;;5093542;28;20020;-78
2024/01/22 06:40:39;;;;;;;6.10;2.00;;;7.10;99.90;;;;;;5095803;28;20170;-77
2024/01/22 06:43:05;;;;;;;3.43;1.43;;;7.20;99.90;;;;;;5094330;28;20048;-76
2024/01/22 06:45:31;;;;;;;4.47;1.65;;;7.30;99.90;;;;;;5094049;28;20074;-76
2024/01/22 06:47:57;;;;;;;9.63;1.73;;;7.30;99.90;;;;;;5094369;28;20020;-77
2024/01/22 06:50:23;;;;;;;8.77;2.33;;;7.40;99.90;;;;;;5093914;28;20020;-77
2024/01/22 06:52:49;;;;;;;6.10;2.07;;;7.50;99.90;;;;;;5094365;28;20441;-77
2024/01/22 06:55:15;;;;;;;4.53;2.23;;;7.60;99.90;;;;;;5093987;28;20046;-77
2024/01/22 06:57:41;;;;;;;5.80;1.45;;;7.60;99.90;;;;;;5093740;28;20093;-76
2024/01/22 07:00:07;;;;;;;9.98;3.03;;;7.70;99.90;;;;;;5095333;28;20457;-76
2024/01/22 07:02:35;;;;;;;6.10;2.10;;;7.80;99.90;;;;;;5095194;28;20054;-77
2024/01/22 07:05:01;;;;;;;5.05;1.70;;;7.80;99.90;;;;;;5094456;28;20106;-77
2024/01/22 07:07:26;;;;;;;6.28;2.47;;;7.90;99.90;;;;;;5093712;28;20020;-77
2024/01/22 07:09:52;;;;;;;5.53;2.03;;;7.90;99.90;;;;;;5095235;28;20130;-77
2024/01/22 07:12:21;;;;;;;4.55;1.77;;;8.00;99.90;;;;;;5092815;28;20069;-77
2024/01/22 07:14:48;;;;;;;3.83;1.27;;;8.00;99.90;;;;;;5093855;28;20032;-77
2024/01/22 07:17:15;;;;;;;5.47;1.73;;;8.10;99.90;;;;;;5094797;28;20099;-78
2024/01/22 07:19:41;;;;;;;3.55;1.38;;;8.20;99.90;;;;;;5094114;28;20024;-76
2024/01/22 07:22:07;;;;;;;2.58;0.90;;;8.30;99.90;;;;;;5093936;28;20024;-77
2024/01/22 07:24:32;;;;;;;2.95;1.40;;;8.30;99.90;;;;;;5093307;28;20028;-77
2024/01/22 07:26:58;;;;;;;2.60;0.98;;;8.40;99.90;;;;;;5093313;28;20397;-77
2024/01/22 07:29:24;;;;;;;4.25;0.70;;;8.50;99.90;;;;;;5093238;28;20027;-77
2024/01/22 07:31:50;;;;;;;1.25;0.70;;;8.60;99.90;;;;;;5093697;28;20024;-77
2024/01/22 07:34:16;;;;;;;1.83;0.63;;;8.60;99.90;;;;;;5094195;28;20054;-78
2024/01/22 07:36:41;;;;;;;1.42;0.60;;;8.60;99.90;;;;;;5094797;28;20024;-77
2024/01/22 07:39:07;;;;;;;1.15;0.70;;;8.60;99.90;;;;;;5093391;28;20031;-77
2024/01/22 07:41:34;;;;;;;0.65;0.50;;;8.80;99.80;;;;;;5098066;28;20044;-77
2024/01/22 07:43:59;;;;;;;1.52;0.50;;;8.80;99.90;;;;;;5096610;28;20464;-76
2024/01/22 07:46:26;;;;;;;4.95;0.55;;;8.80;99.90;;;;;;5096257;28;20026;-77
2024/01/22 07:48:52;;;;;;;2.22;1.05;;;8.90;99.90;;;;;;5115003;28;20015;-76
2024/01/22 07:51:18;;;;;;;1.27;0.50;;;8.90;99.90;;;;;;5096360;28;20061;-78
2024/01/22 07:53:44;;;;;;;1.15;0.60;;;8.90;99.90;;;;;;5096813;28;20035;-77
2024/01/22 07:56:10;;;;;;;1.58;0.60;;;9.00;99.90;;;;;;5114785;28;20024;-78
2024/01/22 07:58:38;;;;;;;1.95;0.50;;;9.00;99.90;;;;;;5114406;28;20533;-77
2024/01/22 08:01:03;;;;;;;1.17;0.60;;;9.10;99.90;;;;;;5114886;28;20052;-77
2024/01/22 08:03:29;;;;;;;3.95;0.75;;;9.10;99.90;;;;;;5096299;28;20132;-77
2024/01/22 08:05:55;;;;;;;1.35;0.60;;;9.20;99.90;;;;;;5096453;28;20024;-77
2024/01/22 08:08:20;;;;;;;2.42;0.73;;;9.30;99.90;;;;;;5095958;28;20035;-77
2024/01/22 08:10:46;;;;;;;1.90;0.52;;;9.40;99.90;;;;;;5096580;28;20055;-77
2024/01/22 08:13:12;;;;;;;4.72;0.90;;;9.40;99.90;;;;;;5096419;28;20444;-77
2024/01/22 08:15:37;;;;;;;1.00;0.40;;;9.50;99.90;;;;;;5096159;28;20065;-77
2024/01/22 08:18:03;;;;;;;0.68;0.60;;;9.60;99.90;;;;;;5114659;28;20019;-77
2024/01/22 08:20:29;;;;;;;1.10;0.55;;;9.60;99.90;;;;;;5114019;28;20023;-77
2024/01/22 08:22:55;;;;;;;2.33;0.50;;;9.70;99.90;;;;;;5095471;28;20024;-78
2024/01/22 08:25:27;;;;;;;2.03;0.63;;;9.80;99.90;;;;;;5114092;28;20020;-77
2024/01/22 08:27:53;;;;;;;1.55;0.57;;;9.80;99.90;;;;;;5096291;28;20380;-77
2024/01/22 08:30:18;;;;;;;1.35;0.50;;;9.90;99.90;;;;;;5095850;28;20051;-78
2024/01/22 08:32:44;;;;;;;0.70;0.50;;;10.00;99.90;;;;;;5096210;28;20058;-77
2024/01/22 08:35:10;;;;;;;1.00;0.70;;;10.10;99.90;;;;;;5114335;28;20042;-77
2024/01/22 08:37:37;;;;;;;3.72;0.57;;;10.10;99.90;;;;;;5095669;28;20042;-78
2024/01/22 08:40:05;;;;;;;0.70;0.40;;;10.20;99.90;;;;;;5096134;28;20020;-77
2024/01/22 08:42:34;;;;;;;2.72;1.10;;;10.20;99.90;;;;;;5091960;28;20050;-77
2024/01/22 08:45:00;;;;;;;1.20;0.50;;;10.20;99.90;;;;;;5092980;28;20046;-78
2024/01/22 08:47:26;;;;;;;1.27;0.52;;;10.10;99.90;;;;;;5093441;28;20028;-78
2024/01/22 08:49:51;;;;;;;1.63;0.38;;;10.10;99.90;;;;;;5092668;28;20012;-78
2024/01/22 08:52:17;;;;;;;1.35;0.50;;;10.00;99.90;;;;;;5092187;28;20016;-82
2024/01/22 08:54:43;;;;;;;1.88;0.40;;;10.00;99.90;;;;;;5093826;28;20066;-78
2024/01/22 08:57:08;;;;;;;2.40;0.70;;;9.90;99.90;;;;;;5092339;28;20023;-78
2024/01/22 08:59:34;;;;;;;1.33;0.60;;;9.90;99.90;;;;;;5092323;28;20028;-78
2024/01/22 09:01:59;;;;;;;0.73;0.50;;;9.80;99.90;;;;;;5092411;28;20028;-77
2024/01/22 09:04:25;;;;;;;1.67;0.40;;;9.80;99.90;;;;;;5092222;28;20032;-78
2024/01/22 09:06:51;;;;;;;0.50;0.50;;;9.80;99.90;;;;;;5092234;28;20453;-76
2024/01/22 09:09:17;;;;;;;2.47;0.70;;;9.70;99.90;;;;;;5092365;28;20020;-77
2024/01/22 09:11:43;;;;;;;2.75;0.40;;;9.70;99.90;;;;;;5093261;28;20020;-77
2024/01/22 09:14:08;;;;;;;1.50;0.50;;;9.70;99.90;;;;;;5091958;28;20035;-77
2024/01/22 09:16:34;;;;;;;1.45;0.68;;;9.70;99.90;;;;;;5091635;28;20027;-77
2024/01/22 09:18:59;;;;;;;1.55;0.40;;;9.70;99.90;;;;;;5091799;28;20035;-77
2024/01/22 09:21:25;;;;;;;2.75;0.60;;;9.70;99.90;;;;;;5093013;28;20077;-77
2024/01/22 09:23:51;;;;;;;1.25;0.63;;;9.60;99.90;;;;;;5093040;28;20457;-77
2024/01/22 09:26:16;;;;;;;2.80;0.50;;;9.60;99.90;;;;;;5093348;28;20084;-76
2024/01/22 09:28:42;;;;;;;2.65;0.47;;;9.70;99.90;;;;;;5094110;28;20032;-78
2024/01/22 09:31:07;;;;;;;1.75;0.50;;;9.70;99.90;;;;;;5094196;28;20507;-78
2024/01/22 09:33:33;;;;;;;2.45;0.43;;;9.70;99.90;;;;;;5095530;28;20115;-78
2024/01/22 09:36:01;;;;;;;2.05;0.60;;;9.70;99.90;;;;;;5095980;28;20027;-77
2024/01/22 09:38:27;;;;;;;3.25;0.60;;;9.70;99.90;;;;;;5095567;28;20407;-77
2024/01/22 09:40:53;;;;;;;1.20;0.60;;;9.90;99.90;;;;;;5096214;28;20016;-77
2024/01/22 09:43:20;;;;;;;1.95;0.50;;;9.90;99.90;;;;;;5116884;28;20052;-77
2024/01/22 09:45:49;;;;;;;1.58;0.40;;;10.00;99.90;;;;;;5100299;28;20076;-77
2024/01/22 09:48:16;;;;;;;2.53;0.75;;;10.10;99.90;;;;;;5100101;28;20026;-78
2024/01/22 09:50:41;;;;;;;3.40;0.50;;;10.10;99.90;;;;;;5101194;28;20030;-77
2024/01/22 09:53:11;;;;;;;2.53;0.45;;;10.20;99.90;;;;;;5099076;28;20027;-77
2024/01/22 09:55:40;;;;;;;0.88;0.50;;;10.20;99.90;;;;;;5098384;28;20452;-77
2024/01/22 09:58:09;;;;;;;0.43;0.40;;;10.30;99.90;;;;;;5117702;28;20444;-78
2024/01/22 10:00:37;;;;;;;2.08;0.40;;;10.30;99.90;;;;;;5098810;28;20368;-78
2024/01/22 10:03:03;;;;;;;1.45;0.43;;;10.40;99.90;;;;;;5098655;28;20029;-77
2024/01/22 10:05:30;;;;;;;1.80;0.50;;;10.40;99.90;;;;;;5098218;28;20023;-77
2024/01/22 10:07:55;;;;;;;2.40;1.33;;;10.40;99.90;;;;;;5098759;28;20107;-77
2024/01/22 10:10:21;;;;;;;1.40;0.60;;;10.40;99.90;;;;;;5098588;28;20531;-85
2024/01/22 10:13:04;;;;;;;2.72;0.80;;;10.40;99.90;;;;;;5098807;28;20072;-77
2024/01/22 10:15:31;;;;;;;1.27;0.65;;;10.40;99.90;;;;;;5098024;28;20476;-77
2024/01/22 10:18:17;;;;;;;4.10;0.88;;;10.40;99.90;;;;;;5099003;28;20452;-79
2024/01/22 10:20:45;;;;;;;1.55;0.57;;;10.40;99.90;;;;;;5097733;28;20422;-77
2024/01/22 10:23:11;;;;;;;2.55;0.55;;;10.30;99.90;;;;;;5098466;28;20379;-77
2024/01/22 10:25:38;;;;;;;2.05;0.40;;;10.30;99.90;;;;;;5098086;28;20041;-77
2024/01/22 10:28:17;;;;;;;0.70;0.40;;;10.20;99.90;;;;;;5116798;28;20015;-77
2024/01/22 10:30:44;;;;;;;1.42;0.82;;;10.30;99.90;;;;;;5097967;28;20272;-77
2024/01/22 10:33:17;;;;;;;0.82;0.50;;;10.20;99.90;;;;;;5116452;28;20019;-77
2024/01/22 10:35:44;;;;;;;2.28;0.50;;;10.20;99.90;;;;;;5098005;28;20089;-77
2024/01/22 10:38:13;;;;;;;0.63;0.57;;;10.10;99.90;;;;;;5098368;28;20030;-77
2024/01/22 10:40:40;;;;;;;1.83;0.52;;;10.10;99.90;;;;;;5097710;28;20020;-77
2024/01/22 10:43:19;;;;;;;3.63;0.75;;;9.90;99.90;;;;;;5094525;28;20096;-77
2024/01/22 10:45:49;;;;;;;2.85;0.65;;;9.90;99.90;;;;;;5093612;28;20414;-77
2024/01/22 10:48:22;;;;;;;1.83;0.60;;;9.70;99.90;;;;;;5094616;28;20072;-77
2024/01/22 10:50:48;;;;;;;0.43;0.38;;;9.70;99.90;;;;;;5094295;28;20515;-78
2024/01/22 10:53:15;;;;;;;1.98;0.60;;;9.60;99.90;;;;;;5094582;28;20445;-77
2024/01/22 10:55:56;;;;;;;0.85;0.60;;;9.60;99.90;;;;;;5093876;28;20059;-77
2024/01/22 10:58:27;;;;;;;1.52;0.68;;;9.70;99.90;;;;;;5094063;28;20020;-77
2024/01/22 11:00:59;;;;;;;1.27;0.50;;;9.70;99.90;;;;;;5094668;28;20028;-77
2024/01/22 11:03:27;;;;;;;2.58;0.73;;;9.80;99.90;;;;;;5095282;28;20031;-83
2024/01/22 11:05:56;;;;;;;1.17;0.50;;;9.90;99.90;;;;;;5094240;28;20035;-77
2024/01/22 11:08:23;;;;;;;2.40;0.70;;;9.90;99.90;;;;;;5094167;28;20027;-77
2024/01/22 11:10:51;;;;;;;1.67;0.52;;;10.00;99.90;;;;;;5093749;28;20357;-77
2024/01/22 11:13:17;;;;;;;0.55;0.50;;;10.00;99.90;;;;;;5093937;28;20024;-78
2024/01/22 11:15:43;;;;;;;1.00;0.70;;;10.00;99.90;;;;;;5094839;28;20103;-77
2024/01/22 11:18:10;;;;;;;2.13;0.70;;;10.00;99.90;;;;;;5093977;28;20058;-77
2024/01/22 11:20:37;;;;;;;3.45;0.60;;;10.00;99.90;;;;;;5094698;28;20031;-77
2024/01/22 11:23:05;;;;;;;1.02;0.60;;;10.00;99.90;;;;;;5094209;28;20058;-78
2024/01/22 11:25:33;;;;;;;1.92;0.45;;;10.10;99.90;;;;;;5093539;28;20032;-77
2024/01/22 11:28:01;;;;;;;0.80;0.60;;;10.20;99.90;;;;;;5093714;28;20092;-77
2024/01/22 11:30:28;;;;;;;2.13;0.60;;;10.20;99.90;;;;;;5093415;28;20059;-78
2024/01/22 11:32:54;;;;;;;1.02;0.60;;;10.30;99.90;;;;;;5094227;28;20134;-77
2024/01/22 11:35:33;;;;;;;1.85;0.50;;;10.30;99.90;;;;;;5094653;28;20028;-77
2024/01/22 11:37:59;;;;;;;0.40;0.30;;;10.40;99.90;;;;;;5094005;28;20047;-77
2024/01/22 11:40:51;;;;;;;0.63;0.30;;;10.50;99.90;;;;;;5093835;28;20062;-78
2024/01/22 11:43:17;;;;;;;;;;;10.60;99.90;;;;;;5094024;28;20050;-77
2024/01/22 11:45:50;;;;;;;0.90;0.45;;;10.60;99.90;;;;;;5094315;28;19903;-77
2024/01/22 11:48:20;;;;;;;0.38;0.20;;;10.70;99.90;;;;;;5093627;28;20024;-77
2024/01/22 11:51:02;;;;;;;1.77;0.60;;;10.80;99.90;;;;;;5093254;28;20076;-77
2024/01/22 11:53:28;;;;;;;1.77;0.40;;;10.80;99.90;;;;;;5094150;28;20020;-86
2024/01/22 11:56:05;;;;;;;0.47;0.40;;;10.80;99.90;;;;;;5092979;28;20039;-77
2024/01/22 11:58:32;;;;;;;0.75;0.38;;;10.90;99.90;;;;;;5093925;28;20031;-78
2024/01/22 12:01:05;;;;;;;0.55;0.30;;;10.90;99.90;;;;;;5093414;28;20111;-77
2024/01/22 12:03:30;;;;;;;0.47;0.40;;;10.90;99.90;;;;;;5092745;28;20028;-78
2024/01/22 12:06:07;;;;;;;0.52;0.32;;;10.90;99.90;;;;;;5093277;28;20313;-76
2024/01/22 12:08:33;;;;;;;1.63;0.50;;;10.90;99.90;;;;;;5092598;28;20024;-77
2024/01/22 12:11:05;;;;;;;1.17;0.77;;;10.80;99.90;;;;;;5085934;28;20015;-77
2024/01/22 12:13:31;;;;;;;0.63;0.30;;;10.90;99.90;;;;;;5092190;28;20035;-78
2024/01/22 12:15:56;;;;;;;0.30;0.30;;;10.90;99.90;;;;;;5092701;28;20107;-78
2024/01/22 12:18:23;;;;;;;0.30;0.30;;;10.80;99.90;;;;;;5092483;28;20476;-77
2024/01/22 12:20:49;;;;;;;0.52;0.38;;;10.90;99.90;;;;;;5093037;28;20514;-77
2024/01/22 12:23:27;;;;;;;0.50;0.30;;;10.90;99.90;;;;;;5092297;28;20107;-76
2024/01/22 12:25:53;;;;;;;1.15;0.30;;;10.90;99.90;;;;;;5091535;28;20464;-77
2024/01/22 12:28:18;;;;;;;1.30;0.38;;;10.90;99.90;;;;;;5092173;28;20023;-77
2024/01/22 12:30:44;;;;;;;1.35;0.50;;;11.00;99.90;;;;;;5092902;28;20024;-77
2024/01/22 12:33:31;;;;;;;0.95;0.35;;;11.00;99.90;;;;;;5092082;28;20019;-78
2024/01/22 12:36:06;;;;;;;0.47;0.47;;;11.00;99.90;;;;;;5092163;28;20024;-79
2024/01/22 12:38:34;;;;;;;0.93;0.38;;;11.00;99.90;;;;;;5091961;28;20046;-79
2024/01/22 12:41:04;;;;;;;0.57;0.40;;;11.00;99.90;;;;;;5077024;28;20525;-78
2024/01/22 12:43:30;;;;;;;1.75;0.50;;;11.00;99.90;;;;;;5063284;28;20040;-83
2024/01/22 12:46:06;;;;;;;1.35;0.30;;;11.00;99.90;;;;;;5093257;28;20073;-78
2024/01/22 12:48:31;;;;;;;0.30;0.28;;;11.00;99.90;;;;;;5074641;28;20051;-80
2024/01/22 12:50:57;;;;;;;1.10;0.50;;;11.00;99.90;;;;;;5075264;28;20486;-79
2024/01/22 12:53:22;;;;;;;0.80;0.40;;;11.00;99.90;;;;;;5092983;28;20035;-78